createdAt,value
2019-05-07T00:02:23.866Z,87.54
2019-05-07T00:04:52.353Z,87.32
2019-05-07T00:07:22.413Z,86.57
2019-05-07T00:09:52.575Z,87.08
2019-05-07T00:12:23.024Z,88.94
2019-05-07T00:14:58.925Z,89.21
2019-05-07T00:17:22.858Z,89.07
2019-05-07T00:19:52.601Z,88.14
2019-05-07T00:22:22.688Z,88.70
2019-05-07T00:24:52.133Z,89.28
2019-05-07T00:27:22.588Z,88.25
2019-05-07T00:29:52.155Z,88.07
2019-05-07T00:32:22.180Z,89.02
2019-05-07T00:34:54.256Z,89.30
2019-05-07T00:37:24.438Z,89.17
2019-05-07T00:39:54.579Z,85.54
2019-05-07T00:43:19.083Z,85.54
2019-05-07T00:45:52.855Z,84.01
2019-05-07T00:48:23.479Z,84.01
2019-05-07T00:50:53.276Z,85.96
2019-05-07T00:53:23.663Z,86.07
2019-05-07T00:55:52.595Z,86.50
2019-05-07T00:58:26.329Z,87.13
2019-05-07T01:00:53.118Z,87.72
2019-05-07T01:03:22.275Z,87.49
2019-05-07T01:05:52.748Z,87.83
2019-05-07T01:08:22.501Z,87.83
2019-05-07T01:10:52.857Z,88.01
2019-05-07T01:13:23.423Z,87.57
2019-05-07T01:15:53.205Z,87.80
2019-05-07T01:18:23.240Z,86.63
2019-05-07T01:20:53.324Z,85.90
2019-05-07T01:23:22.829Z,85.50
2019-05-07T01:25:52.625Z,85.87
2019-05-07T01:28:22.257Z,85.40
2019-05-07T01:30:52.764Z,85.32
2019-05-07T01:33:23.098Z,84.84
2019-05-07T01:36:13.244Z,84.28
2019-05-07T01:38:42.695Z,84.25
2019-05-07T01:41:12.512Z,85.14
2019-05-07T01:43:42.914Z,85.71
2019-05-07T01:46:12.249Z,83.86
2019-05-07T01:48:42.938Z,83.44
2019-05-07T01:51:12.846Z,83.44
2019-05-07T01:53:43.023Z,83.02
2019-05-07T01:56:12.432Z,82.99
2019-05-07T01:58:42.505Z,82.44
2019-05-07T02:01:13.095Z,82.83
2019-05-07T02:03:52.764Z,83.71
2019-05-07T02:06:23.529Z,85.78
2019-05-07T02:08:53.638Z,85.92
2019-05-07T02:11:33.001Z,86.21
2019-05-07T02:14:02.049Z,86.08
2019-05-07T02:16:32.536Z,85.24
2019-05-07T02:19:02.137Z,86.15
2019-05-07T02:21:32.801Z,86.10
2019-05-07T02:24:03.186Z,87.41
2019-05-07T02:26:32.151Z,88.47
2019-05-07T02:29:02.770Z,89.90
2019-05-07T02:31:33.782Z,89.90
2019-05-07T02:34:02.797Z,91.63
2019-05-07T02:36:33.977Z,91.63
2019-05-07T02:39:15.625Z,92.41
2019-05-07T02:41:44.546Z,91.65
2019-05-07T02:44:14.103Z,90.54
2019-05-07T02:46:59.727Z,89.70
2019-05-07T02:49:32.598Z,87.57
2019-05-07T02:52:18.175Z,87.57
2019-05-07T02:55:04.247Z,87.80
2019-05-07T02:57:33.912Z,85.94
2019-05-07T03:00:04.758Z,86.05
2019-05-07T03:02:33.504Z,86.05
2019-05-07T03:05:05.243Z,85.40
2019-05-07T03:07:33.445Z,85.40
2019-05-07T03:10:03.545Z,86.17
2019-05-07T03:12:33.531Z,86.43
2019-05-07T03:15:04.445Z,89.49
2019-05-07T03:17:33.412Z,89.44
2019-05-07T03:20:03.831Z,88.08
2019-05-07T03:22:33.782Z,88.08
2019-05-07T03:25:16.809Z,87.22
2019-05-07T03:27:45.313Z,87.72
2019-05-07T03:30:17.350Z,89.20
2019-05-07T03:33:07.118Z,88.81
2019-05-07T03:35:37.714Z,89.58
2019-05-07T03:38:06.273Z,87.63
2019-05-07T03:40:35.905Z,86.83
2019-05-07T03:43:06.056Z,87.36
2019-05-07T03:45:36.330Z,88.03
2019-05-07T03:48:06.598Z,87.83
2019-05-07T03:50:35.065Z,88.43
2019-05-07T03:53:03.569Z,87.99
2019-05-07T03:55:33.236Z,88.71
2019-05-07T03:58:03.197Z,89.57
2019-05-07T04:00:33.333Z,90.97
2019-05-07T04:03:03.666Z,91.35
2019-05-07T04:05:34.184Z,91.71
2019-05-07T04:08:03.502Z,91.04
2019-05-07T04:10:33.811Z,90.31
2019-05-07T04:13:04.541Z,88.53
2019-05-07T04:15:33.297Z,87.87
2019-05-07T04:18:03.735Z,86.59
2019-05-07T04:20:33.423Z,86.16
2019-05-07T04:23:04.370Z,86.61
2019-05-07T04:25:49.180Z,86.00
2019-05-07T04:28:23.538Z,86.09
2019-05-07T04:30:53.347Z,85.70
2019-05-07T04:33:23.944Z,85.92
2019-05-07T04:35:54.192Z,86.06
2019-05-07T04:38:23.839Z,86.29
2019-05-07T04:40:53.713Z,84.47
2019-05-07T04:43:23.347Z,82.84
2019-05-07T04:45:53.648Z,82.73
2019-05-07T04:48:23.287Z,82.77
2019-05-07T04:50:54.318Z,82.88
2019-05-07T04:53:23.803Z,83.04
2019-05-07T04:55:53.544Z,82.26
2019-05-07T04:58:23.625Z,82.63
2019-05-07T05:00:53.788Z,82.17
2019-05-07T05:03:24.338Z,82.12
2019-05-07T05:05:53.523Z,80.50
2019-05-07T05:08:23.308Z,78.61
2019-05-07T05:10:53.742Z,78.68
2019-05-07T05:13:23.688Z,78.81
2019-05-07T05:15:52.846Z,78.62
2019-05-07T05:18:22.011Z,77.89
2019-05-07T05:21:08.425Z,77.64
2019-05-07T05:23:38.541Z,77.21
2019-05-07T05:26:07.035Z,76.95
2019-05-07T05:28:35.514Z,77.13
2019-05-07T05:31:05.727Z,76.74
2019-05-07T05:33:34.205Z,76.39
2019-05-07T05:36:03.139Z,76.13
2019-05-07T05:38:32.858Z,75.93
2019-05-07T05:41:02.738Z,75.70
2019-05-07T05:43:35.691Z,76.83
2019-05-07T05:46:08.794Z,77.12
2019-05-07T05:48:37.283Z,76.15
2019-05-07T05:51:07.419Z,76.12
2019-05-07T05:53:43.505Z,76.94
2019-05-07T05:56:13.883Z,77.52
2019-05-07T05:58:52.827Z,75.21
2019-05-07T06:01:38.819Z,74.28
2019-05-07T06:04:08.924Z,73.36
2019-05-07T06:07:01.126Z,72.58
2019-05-07T06:09:25.775Z,68.96
2019-05-07T06:11:58.835Z,67.84
2019-05-07T06:14:37.778Z,69.76
2019-05-07T06:17:22.967Z,66.33
2019-05-07T06:20:02.971Z,67.53
2019-05-07T06:22:38.653Z,67.21
2019-05-07T06:25:15.307Z,68.44
2019-05-07T06:27:43.933Z,67.81
2019-05-07T06:30:12.958Z,66.37
2019-05-07T06:32:42.996Z,66.20
2019-05-07T06:35:12.393Z,65.48
2019-05-07T06:37:42.923Z,65.89
2019-05-07T06:40:26.703Z,65.41
2019-05-07T06:43:12.294Z,65.50
2019-05-07T06:45:51.902Z,66.62
2019-05-07T06:48:37.167Z,65.24
2019-05-07T06:50:56.827Z,64.69
2019-05-07T06:53:30.182Z,64.21
2019-05-07T06:56:02.537Z,64.06
2019-05-07T06:58:32.687Z,65.17
2019-05-07T07:01:12.192Z,64.81
2019-05-07T07:04:02.685Z,66.11
2019-05-07T07:06:36.086Z,66.58
2019-05-07T07:09:25.865Z,68.03
2019-05-07T07:12:02.248Z,65.00
2019-05-07T07:14:32.731Z,63.80
2019-05-07T07:17:02.305Z,60.69
2019-05-07T07:19:32.494Z,63.20
2019-05-07T07:22:02.399Z,62.37
2019-05-07T07:24:32.915Z,62.63
2019-05-07T07:27:02.438Z,62.72
2019-05-07T07:29:32.742Z,63.50
2019-05-07T07:32:05.551Z,61.57
2019-05-07T07:34:35.672Z,60.07
2019-05-07T07:37:10.901Z,62.55
2019-05-07T07:39:38.556Z,63.92
2019-05-07T07:42:08.765Z,62.78
2019-05-07T07:44:37.324Z,63.99
2019-05-07T07:47:05.827Z,63.94
2019-05-07T07:49:34.583Z,62.90
2019-05-07T07:52:03.366Z,61.04
2019-05-07T07:54:32.239Z,60.88
2019-05-07T07:57:02.583Z,61.95
2019-05-07T07:59:38.368Z,61.86
2019-05-07T08:02:23.589Z,61.89
2019-05-07T08:04:52.758Z,61.63
2019-05-07T08:07:22.863Z,61.66
2019-05-07T08:09:52.099Z,59.78
2019-05-07T08:12:22.203Z,60.48
2019-05-07T08:14:51.897Z,61.91
2019-05-07T08:17:22.374Z,60.28
2019-05-07T08:19:51.978Z,60.24
2019-05-07T08:22:22.644Z,56.72
2019-05-07T08:24:51.881Z,58.09
2019-05-07T08:27:22.186Z,59.18
2019-05-07T08:29:52.480Z,60.33
2019-05-07T08:32:32.670Z,60.04
2019-05-07T08:35:05.612Z,60.72
2019-05-07T08:37:34.121Z,61.69
2019-05-07T08:40:03.191Z,61.18
2019-05-07T08:42:32.147Z,61.54
2019-05-07T08:45:02.885Z,63.73
2019-05-07T08:47:33.354Z,61.69
2019-05-07T08:50:02.907Z,61.74
2019-05-07T08:52:32.703Z,59.85
2019-05-07T08:55:02.167Z,64.10
2019-05-07T08:57:31.911Z,60.39
2019-05-07T09:00:02.228Z,56.17
2019-05-07T09:02:32.573Z,53.58
2019-05-07T09:05:02.992Z,55.99
2019-05-07T09:07:32.217Z,55.33
2019-05-07T09:10:02.491Z,56.00
2019-05-07T09:12:31.859Z,56.64
2019-05-07T09:15:02.189Z,55.72
2019-05-07T09:17:31.814Z,58.13
2019-05-07T09:20:02.609Z,56.74
2019-05-07T09:22:32.302Z,56.96
2019-05-07T09:25:03.123Z,57.61
2019-05-07T09:27:42.497Z,58.57
2019-05-07T09:30:13.571Z,60.25
2019-05-07T09:32:43.943Z,59.77
2019-05-07T09:35:14.232Z,56.96
2019-05-07T09:37:42.708Z,58.66
2019-05-07T09:40:12.630Z,58.28
2019-05-07T09:42:42.213Z,53.52
2019-05-07T09:45:12.487Z,55.13
2019-05-07T09:47:41.781Z,55.75
2019-05-07T09:50:11.915Z,55.81
2019-05-07T09:52:42.505Z,55.58
2019-05-07T09:55:14.872Z,58.09
2019-05-07T09:57:42.471Z,58.04
2019-05-07T10:00:12.538Z,57.55
2019-05-07T10:02:42.509Z,56.52
2019-05-07T10:05:11.428Z,53.46
2019-05-07T10:07:42.205Z,54.52
2019-05-07T10:10:12.017Z,53.85
2019-05-07T10:13:01.898Z,49.96
2019-05-07T10:15:32.930Z,55.20
2019-05-07T10:18:08.338Z,55.45
2019-05-07T10:20:36.904Z,55.52
2019-05-07T10:23:05.574Z,56.61
2019-05-07T10:25:40.013Z,58.04
2019-05-07T10:28:08.631Z,59.11
2019-05-07T10:30:37.601Z,60.99
2019-05-07T10:33:06.151Z,61.40
2019-05-07T10:35:34.654Z,59.10
2019-05-07T10:38:03.310Z,57.99
2019-05-07T10:40:32.772Z,57.53
2019-05-07T10:43:01.409Z,57.95
2019-05-07T10:45:34.786Z,57.13
2019-05-07T10:48:07.773Z,55.90
2019-05-07T10:50:39.255Z,57.51
2019-05-07T10:53:07.947Z,57.41
2019-05-07T10:55:36.527Z,58.35
2019-05-07T10:58:05.157Z,59.81
2019-05-07T11:00:33.899Z,61.59
2019-05-07T11:03:02.590Z,61.84
2019-05-07T11:05:32.638Z,61.77
2019-05-07T11:08:02.098Z,63.00
2019-05-07T11:10:32.691Z,64.54
2019-05-07T11:13:02.346Z,66.20
2019-05-07T11:15:32.768Z,65.26
2019-05-07T11:18:12.745Z,64.81
2019-05-07T11:20:49.822Z,62.84
2019-05-07T11:23:11.894Z,63.72
2019-05-07T11:25:42.103Z,61.68
2019-05-07T11:28:12.305Z,59.86
2019-05-07T11:30:42.571Z,59.70
2019-05-07T11:33:12.791Z,59.46
2019-05-07T11:35:42.285Z,61.69
2019-05-07T11:38:21.121Z,58.28
2019-05-07T11:40:42.804Z,54.41
2019-05-07T11:43:22.300Z,52.19
2019-05-07T11:45:54.310Z,48.56
2019-05-07T11:48:24.136Z,51.40
2019-05-07T11:51:05.971Z,54.54
2019-05-07T11:53:36.095Z,55.42
2019-05-07T11:56:04.734Z,53.84
2019-05-07T11:58:33.216Z,53.54
2019-05-07T12:01:06.705Z,54.15
2019-05-07T12:03:35.182Z,54.51
2019-05-07T12:06:03.693Z,56.07
2019-05-07T12:08:42.558Z,57.50
2019-05-07T12:11:02.587Z,58.10
2019-05-07T12:13:32.325Z,58.57
2019-05-07T12:16:03.013Z,60.74
2019-05-07T12:18:31.974Z,60.24
2019-05-07T12:21:03.750Z,62.29
2019-05-07T12:23:32.998Z,59.64
2019-05-07T12:26:02.312Z,59.00
2019-05-07T12:28:32.832Z,55.89
2019-05-07T12:31:12.267Z,56.24
2019-05-07T12:33:45.313Z,58.85
2019-05-07T12:36:15.617Z,61.38
2019-05-07T12:38:44.094Z,62.47
2019-05-07T12:41:23.495Z,62.06
2019-05-07T12:43:52.065Z,61.30
2019-05-07T12:46:22.336Z,63.64
2019-05-07T12:48:52.393Z,62.79
2019-05-07T12:51:31.662Z,60.86
2019-05-07T12:53:53.057Z,62.20
2019-05-07T12:56:21.610Z,62.07
2019-05-07T12:58:57.971Z,63.33
2019-05-07T13:01:43.208Z,65.25
2019-05-07T13:04:16.203Z,63.41
2019-05-07T13:07:02.625Z,61.55
2019-05-07T13:09:32.481Z,60.73
2019-05-07T13:12:02.948Z,61.80
2019-05-07T13:14:31.369Z,62.21
2019-05-07T13:16:59.873Z,60.18
2019-05-07T13:19:28.349Z,58.21
2019-05-07T13:21:56.834Z,59.60
2019-05-07T13:24:25.333Z,60.10
2019-05-07T13:26:53.815Z,59.24
2019-05-07T13:29:22.367Z,57.93
2019-05-07T13:31:54.260Z,61.00
2019-05-07T13:34:22.999Z,61.60
2019-05-07T13:36:54.770Z,60.09
2019-05-07T13:39:32.506Z,61.32
2019-05-07T13:42:12.651Z,61.20
2019-05-07T13:44:52.113Z,60.55
2019-05-07T13:47:26.008Z,62.14
2019-05-07T13:49:57.088Z,62.76
2019-05-07T13:52:25.815Z,60.84
2019-05-07T13:54:54.768Z,57.85
2019-05-07T13:57:23.606Z,59.34
2019-05-07T13:59:53.064Z,60.02
2019-05-07T14:02:26.155Z,58.76
2019-05-07T14:04:54.797Z,57.92
2019-05-07T14:07:25.094Z,58.68
2019-05-07T14:09:53.702Z,60.07
2019-05-07T14:12:23.077Z,57.75
2019-05-07T14:14:53.135Z,59.17
2019-05-07T14:17:22.108Z,55.99
2019-05-07T14:19:52.874Z,57.34
2019-05-07T14:22:22.548Z,57.05
2019-05-07T14:24:53.054Z,57.15
2019-05-07T14:27:21.880Z,55.67
2019-05-07T14:29:52.139Z,53.06
2019-05-07T14:32:22.651Z,55.25
2019-05-07T14:35:07.955Z,54.83
2019-05-07T14:37:44.070Z,54.92
2019-05-07T14:40:13.432Z,54.98
2019-05-07T14:42:43.532Z,54.94
2019-05-07T14:45:12.283Z,51.91
2019-05-07T14:47:44.434Z,50.64
2019-05-07T14:50:12.338Z,49.18
2019-05-07T14:52:43.069Z,50.23
2019-05-07T14:55:12.855Z,47.30
2019-05-07T14:57:42.061Z,47.13
2019-05-07T15:00:12.284Z,49.52
2019-05-07T15:02:42.168Z,50.84
2019-05-07T15:05:11.965Z,49.63
2019-05-07T15:07:41.699Z,51.07
2019-05-07T15:10:10.723Z,52.31
2019-05-07T15:12:39.346Z,52.12
2019-05-07T15:15:08.597Z,52.24
2019-05-07T15:17:38.787Z,51.23
2019-05-07T15:20:07.664Z,50.69
2019-05-07T15:22:49.853Z,49.23
2019-05-07T15:25:17.080Z,42.59
2019-05-07T15:27:47.906Z,40.25
2019-05-07T15:30:16.553Z,41.37
2019-05-07T15:32:45.109Z,39.73
2019-05-07T15:35:13.671Z,40.56
2019-05-07T15:37:42.811Z,42.22
2019-05-07T15:40:11.511Z,43.78
2019-05-07T15:42:42.006Z,46.49
2019-05-07T15:45:12.471Z,46.65
2019-05-07T15:47:42.465Z,47.12
2019-05-07T15:50:12.487Z,48.62
2019-05-07T15:52:42.810Z,46.91
2019-05-07T15:55:12.160Z,46.60
2019-05-07T15:57:42.667Z,45.06
2019-05-07T16:00:13.035Z,46.59
2019-05-07T16:02:45.262Z,45.25
2019-05-07T16:05:13.839Z,45.07
2019-05-07T16:07:43.705Z,44.64
2019-05-07T16:10:15.019Z,47.41
2019-05-07T16:12:42.492Z,51.00
2019-05-07T16:15:13.669Z,51.32
2019-05-07T16:17:43.069Z,47.89
2019-05-07T16:20:14.190Z,40.18
2019-05-07T16:22:46.628Z,37.57
2019-05-07T16:25:15.115Z,34.53
2019-05-07T16:27:43.690Z,33.16
2019-05-07T16:30:14.277Z,31.78
2019-05-07T16:32:42.961Z,31.35
2019-05-07T16:35:12.496Z,32.08
2019-05-07T16:37:42.865Z,34.27
2019-05-07T16:40:12.685Z,35.88
2019-05-07T16:42:42.857Z,34.62
2019-05-07T16:45:13.149Z,35.75
2019-05-07T16:47:41.945Z,36.34
2019-05-07T16:50:12.786Z,37.96
2019-05-07T16:52:42.031Z,40.67
2019-05-07T16:55:12.261Z,42.00
2019-05-07T16:57:42.608Z,43.89
2019-05-07T17:00:16.479Z,50.91
2019-05-07T17:02:52.560Z,49.94
2019-05-07T17:05:22.840Z,48.88
2019-05-07T17:07:59.091Z,53.78
2019-05-07T17:10:29.118Z,57.11
2019-05-07T17:12:58.977Z,55.35
2019-05-07T17:15:27.457Z,56.77
2019-05-07T17:18:02.740Z,56.03
2019-05-07T17:20:32.709Z,53.02
2019-05-07T17:23:03.021Z,50.72
2019-05-07T17:25:37.723Z,51.38
2019-05-07T17:28:08.103Z,51.35
2019-05-07T17:30:37.838Z,51.05
2019-05-07T17:33:07.001Z,53.59
2019-05-07T17:35:35.485Z,58.94
2019-05-07T17:38:07.205Z,61.82
2019-05-07T17:40:34.261Z,62.60
2019-05-07T17:43:03.264Z,64.50
2019-05-07T17:45:32.431Z,65.97
2019-05-07T17:48:03.128Z,66.32
2019-05-07T17:50:36.551Z,67.83
2019-05-07T17:53:06.552Z,68.70
2019-05-07T17:55:35.031Z,68.89
2019-05-07T17:58:03.602Z,70.84
2019-05-07T18:00:32.849Z,71.64
2019-05-07T18:03:19.454Z,72.55
2019-05-07T18:05:47.994Z,72.87
2019-05-07T18:08:16.495Z,74.00
2019-05-07T18:10:44.978Z,74.40
2019-05-07T18:13:13.482Z,75.86
2019-05-07T18:15:42.755Z,75.47
2019-05-07T18:18:12.814Z,76.84
2019-05-07T18:20:42.186Z,76.38
2019-05-07T18:23:16.653Z,77.55
2019-05-07T18:25:42.898Z,78.47
2019-05-07T18:28:14.757Z,78.64
2019-05-07T18:30:43.578Z,79.32
2019-05-07T18:33:16.461Z,79.94
2019-05-07T18:35:46.817Z,80.53
2019-05-07T18:38:15.313Z,81.06
2019-05-07T18:40:43.796Z,81.76
2019-05-07T18:43:12.420Z,82.22
2019-05-07T18:45:40.888Z,82.60
2019-05-07T18:48:09.370Z,83.22
2019-05-07T18:50:37.855Z,83.02
2019-05-07T18:53:06.361Z,84.01
2019-05-07T18:55:34.833Z,84.77
2019-05-07T18:58:03.339Z,84.35
2019-05-07T19:00:35.930Z,84.71
2019-05-07T19:03:04.585Z,85.33
2019-05-07T19:05:33.149Z,85.87
2019-05-07T19:08:07.673Z,86.48
2019-05-07T19:10:32.957Z,86.48
2019-05-07T19:13:01.605Z,86.51
2019-05-07T19:15:30.102Z,86.88
2019-05-07T19:17:59.354Z,86.64
2019-05-07T19:20:27.867Z,87.04
2019-05-07T19:22:59.795Z,86.41
2019-05-07T19:25:28.340Z,86.21
2019-05-07T19:27:56.821Z,86.83
2019-05-07T19:30:25.579Z,86.31
2019-05-07T19:32:54.135Z,85.45
2019-05-07T19:35:23.238Z,85.02
2019-05-07T19:37:52.892Z,84.86
2019-05-07T19:40:21.568Z,85.53
2019-05-07T19:42:52.264Z,85.53
2019-05-07T19:45:24.208Z,86.38
2019-05-07T19:47:52.328Z,85.82
2019-05-07T19:50:23.149Z,85.30
2019-05-07T19:52:52.162Z,85.34
2019-05-07T19:55:21.981Z,86.41
2019-05-07T19:57:52.347Z,87.05
2019-05-07T20:00:22.985Z,86.51
2019-05-07T20:02:53.258Z,86.28
2019-05-07T20:05:21.831Z,85.69
2019-05-07T20:07:55.198Z,84.55
2019-05-07T20:10:33.022Z,85.89
2019-05-07T20:13:03.100Z,86.20
2019-05-07T20:15:32.693Z,85.58
2019-05-07T20:18:03.152Z,86.07
2019-05-07T20:20:33.155Z,85.38
2019-05-07T20:23:02.551Z,85.73
2019-05-07T20:25:33.277Z,86.04
2019-05-07T20:28:02.166Z,86.45
2019-05-07T20:30:32.830Z,86.53
2019-05-07T20:33:03.123Z,86.47
2019-05-07T20:35:32.573Z,87.21
2019-05-07T20:38:02.945Z,86.85
2019-05-07T20:40:32.170Z,86.81
2019-05-07T20:43:01.923Z,86.75
2019-05-07T20:45:31.997Z,86.86
2019-05-07T20:48:02.565Z,87.44
2019-05-07T20:50:33.085Z,87.43
2019-05-07T20:53:02.017Z,87.41
2019-05-07T20:55:38.304Z,87.32
2019-05-07T20:58:07.251Z,86.14
2019-05-07T21:00:35.780Z,86.07
2019-05-07T21:03:19.623Z,85.44
2019-05-07T21:05:53.173Z,85.30
2019-05-07T21:08:22.820Z,86.11
2019-05-07T21:10:53.509Z,87.21
2019-05-07T21:13:30.371Z,87.06
2019-05-07T21:15:52.752Z,86.70
2019-05-07T21:18:23.273Z,86.40
2019-05-07T21:20:52.996Z,87.03
2019-05-07T21:23:23.118Z,87.93
2019-05-07T21:25:52.865Z,88.32
2019-05-07T21:28:21.673Z,89.11
2019-05-07T21:30:52.134Z,88.24
2019-05-07T21:33:22.581Z,87.09
2019-05-07T21:35:52.278Z,87.04
2019-05-07T21:38:22.427Z,87.65
2019-05-07T21:40:51.142Z,86.55
2019-05-07T21:43:21.913Z,86.99
2019-05-07T21:45:49.919Z,86.67
2019-05-07T21:48:18.439Z,86.93
2019-05-07T21:50:46.906Z,87.47
2019-05-07T21:53:32.531Z,88.55
2019-05-07T21:56:12.331Z,88.75
2019-05-07T21:58:45.516Z,88.10
2019-05-07T22:01:19.014Z,88.83
2019-05-07T22:03:49.142Z,90.97
2019-05-07T22:06:17.729Z,92.94
2019-05-07T22:08:46.210Z,92.97
2019-05-07T22:11:14.874Z,92.45
2019-05-07T22:13:43.689Z,93.09
2019-05-07T22:16:13.048Z,92.16
2019-05-07T22:18:42.694Z,92.15
2019-05-07T22:21:12.406Z,91.44
2019-05-07T22:23:42.830Z,92.41
2019-05-07T22:26:20.137Z,93.36
2019-05-07T22:28:42.175Z,93.90
2019-05-07T22:31:27.331Z,94.83
2019-05-07T22:34:13.860Z,95.48
2019-05-07T22:36:43.134Z,95.63
2019-05-07T22:39:12.591Z,94.98
2019-05-07T22:41:42.458Z,94.77
2019-05-07T22:44:11.991Z,95.17
2019-05-07T22:46:42.163Z,95.70
2019-05-07T22:49:12.284Z,94.89
2019-05-07T22:51:40.854Z,95.69
2019-05-07T22:54:09.384Z,94.65
2019-05-07T22:56:57.418Z,94.80
2019-05-07T22:59:25.915Z,94.81
2019-05-07T23:01:55.081Z,95.12
2019-05-07T23:04:23.693Z,95.21
2019-05-07T23:06:52.784Z,95.44
2019-05-07T23:09:22.309Z,95.14
2019-05-07T23:11:52.688Z,95.71
2019-05-07T23:14:22.542Z,95.77
2019-05-07T23:16:55.037Z,96.00
2019-05-07T23:19:22.132Z,95.93
2019-05-07T23:21:52.161Z,95.07
2019-05-07T23:24:22.730Z,94.44
2019-05-07T23:26:53.347Z,94.72
2019-05-07T23:29:22.467Z,95.45
2019-05-07T23:31:52.930Z,95.92
2019-05-07T23:34:22.081Z,95.75
2019-05-07T23:36:53.063Z,95.09
2019-05-07T23:39:22.597Z,95.75
2019-05-07T23:41:58.663Z,95.20
2019-05-07T23:44:27.168Z,94.91
2019-05-07T23:46:55.651Z,95.04
2019-05-07T23:49:24.169Z,95.59
2019-05-07T23:51:53.240Z,95.59
2019-05-07T23:54:22.980Z,96.03
2019-05-07T23:57:05.385Z,95.72
2019-05-07T23:59:22.353Z,95.43
